createdAt,value
2023-12-30T00:02:31.912Z,99475.72
2023-12-30T00:07:33.553Z,99466.59
2023-12-30T00:12:35.248Z,99471.25
2023-12-30T00:17:37.115Z,99484.13
2023-12-30T00:22:38.864Z,99477.78
2023-12-30T00:27:40.538Z,99468.91
2023-12-30T00:32:42.345Z,99481.59
2023-12-30T00:37:44.035Z,99473.63
2023-12-30T00:42:46.185Z,99481.66
2023-12-30T00:47:48.229Z,99452.50
2023-12-30T00:52:49.913Z,99450.25
2023-12-30T00:57:51.642Z,99454.88
2023-12-30T01:02:55.478Z,99456.91
2023-12-30T01:07:57.496Z,99437.25
2023-12-30T01:12:59.348Z,99449.06
2023-12-30T01:18:01.508Z,99455.25
2023-12-30T01:23:03.683Z,99465.47
2023-12-30T01:28:08.760Z,99477.66
2023-12-30T01:33:11.756Z,99483.28
2023-12-30T01:38:13.450Z,99479.81
2023-12-30T01:43:28.364Z,99494.53
2023-12-30T01:48:31.025Z,99488.63
2023-12-30T01:53:34.144Z,99484.25
2023-12-30T01:58:36.184Z,99495.38
2023-12-30T02:03:37.950Z,99515.44
2023-12-30T02:08:39.757Z,99499.97
2023-12-30T02:13:45.460Z,99516.91
2023-12-30T02:18:47.264Z,99533.19
2023-12-30T02:23:54.311Z,99541.94
2023-12-30T02:28:55.964Z,99539.34
2023-12-30T02:33:57.693Z,99543.13
2023-12-30T02:38:59.386Z,99534.16
2023-12-30T02:44:02.736Z,99520.59
2023-12-30T02:49:06.242Z,99525.84
2023-12-30T02:54:08.086Z,99526.03
2023-12-30T02:59:09.700Z,99525.06
2023-12-30T03:04:11.595Z,99536.75
2023-12-30T03:09:13.619Z,99534.25
2023-12-30T03:14:15.625Z,99532.91
2023-12-30T03:19:18.144Z,99519.88
2023-12-30T03:24:19.831Z,99528.06
2023-12-30T03:29:21.945Z,99534.25
2023-12-30T03:34:24.723Z,99537.28
2023-12-30T03:39:26.390Z,99529.41
2023-12-30T03:44:28.024Z,99531.09
2023-12-30T03:49:29.804Z,99521.03
2023-12-30T03:54:31.743Z,99533.09
2023-12-30T03:59:33.377Z,99526.69
2023-12-30T04:04:35.223Z,99539.09
2023-12-30T04:09:36.875Z,99556.66
2023-12-30T04:14:38.467Z,99553.13
2023-12-30T04:19:40.530Z,99556.81
2023-12-30T04:24:42.230Z,99578.94
2023-12-30T04:29:43.889Z,99569.41
2023-12-30T04:34:45.597Z,99580.09
2023-12-30T04:39:47.343Z,99581.59
2023-12-30T04:44:48.998Z,99610.19
2023-12-30T04:49:50.711Z,99602.69
2023-12-30T04:54:52.490Z,99616.38
2023-12-30T04:59:54.398Z,99625.09
2023-12-30T05:04:56.046Z,99624.94
2023-12-30T05:09:57.707Z,99621.38
2023-12-30T05:14:59.346Z,99625.06
2023-12-30T05:20:01.089Z,99638.78
2023-12-30T05:25:03.012Z,99649.09
2023-12-30T05:30:11.403Z,99647.97
2023-12-30T05:35:13.066Z,99658.16
2023-12-30T05:40:14.749Z,99667.63
2023-12-30T05:45:16.709Z,99670.53
2023-12-30T05:50:18.397Z,99674.94
2023-12-30T05:55:20.064Z,99697.56
2023-12-30T06:00:22.002Z,99690.88
2023-12-30T06:05:23.647Z,99697.03
2023-12-30T06:10:25.330Z,99708.03
2023-12-30T06:15:27.078Z,99701.63
2023-12-30T06:20:28.914Z,99710.66
2023-12-30T06:25:30.628Z,99715.34
2023-12-30T06:30:32.486Z,99737.44
2023-12-30T06:35:35.262Z,99738.69
2023-12-30T06:40:37.000Z,99735.56
2023-12-30T06:45:38.909Z,99745.66
2023-12-30T06:50:40.569Z,99745.72
2023-12-30T06:55:47.861Z,99764.84
2023-12-30T07:00:50.296Z,99764.72
2023-12-30T07:05:51.941Z,99758.13
2023-12-30T07:10:53.541Z,99788.16
2023-12-30T07:15:55.196Z,99796.41
2023-12-30T07:20:56.833Z,99812.03
2023-12-30T07:25:58.662Z,99810.59
2023-12-30T07:31:00.406Z,99826.94
2023-12-30T07:36:05.181Z,99834.50
2023-12-30T07:41:06.836Z,99848.50
2023-12-30T07:46:08.485Z,99862.91
2023-12-30T07:51:10.883Z,99875.34
2023-12-30T07:56:12.567Z,99864.88
2023-12-30T08:01:14.424Z,99855.13
2023-12-30T08:06:16.104Z,99856.88
2023-12-30T08:11:17.830Z,99868.78
2023-12-30T08:16:19.786Z,99876.88
2023-12-30T08:21:21.475Z,99886.59
2023-12-30T08:26:23.919Z,99889.09
2023-12-30T08:31:25.601Z,99901.69
2023-12-30T08:36:29.463Z,99907.22
2023-12-30T08:41:31.171Z,99905.03
2023-12-30T08:46:32.973Z,99910.91
2023-12-30T08:51:34.738Z,99926.19
2023-12-30T08:56:36.394Z,99942.22
2023-12-30T09:01:38.453Z,99946.91
2023-12-30T09:06:40.112Z,99950.31
2023-12-30T09:11:43.953Z,99958.59
2023-12-30T09:16:45.778Z,99965.47
2023-12-30T09:21:47.459Z,99963.56
2023-12-30T09:26:49.089Z,99947.94
2023-12-30T09:31:50.890Z,99959.47
2023-12-30T09:36:52.610Z,99960.66
2023-12-30T09:41:54.276Z,99953.44
2023-12-30T09:46:57.053Z,99965.84
2023-12-30T09:52:01.332Z,99957.09
2023-12-30T09:57:04.143Z,99953.00
2023-12-30T10:02:08.080Z,99955.91
2023-12-30T10:07:11.741Z,99953.44
2023-12-30T10:12:13.369Z,99947.78
2023-12-30T10:17:15.483Z,99944.72
2023-12-30T10:22:17.305Z,99948.50
2023-12-30T10:27:19.612Z,99961.03
2023-12-30T10:32:22.437Z,99972.38
2023-12-30T10:37:24.379Z,99970.03
2023-12-30T10:42:26.180Z,99981.25
2023-12-30T10:47:28.452Z,99985.47
2023-12-30T10:52:30.341Z,99991.22
2023-12-30T10:57:38.382Z,99988.50
2023-12-30T11:02:40.360Z,99989.63
2023-12-30T11:07:42.274Z,99991.75
2023-12-30T11:12:44.008Z,99982.41
2023-12-30T11:17:45.775Z,99984.28
2023-12-30T11:22:47.979Z,100000.22
2023-12-30T11:27:54.596Z,99995.34
2023-12-30T11:32:59.245Z,99994.69
2023-12-30T11:38:03.700Z,99995.78
2023-12-30T11:43:08.091Z,99999.22
2023-12-30T11:48:10.050Z,99969.88
2023-12-30T11:53:11.805Z,99972.41
2023-12-30T11:58:13.500Z,99966.28
2023-12-30T12:03:15.256Z,99966.88
2023-12-30T12:08:16.908Z,99964.66
2023-12-30T12:13:22.486Z,99960.06
2023-12-30T12:18:25.710Z,99964.41
2023-12-30T12:23:27.436Z,99976.44
2023-12-30T12:28:29.226Z,99993.59
2023-12-30T12:33:31.049Z,99979.66
2023-12-30T12:38:32.748Z,99956.53
2023-12-30T12:43:35.086Z,99942.41
2023-12-30T12:48:39.177Z,99928.56
2023-12-30T12:53:40.947Z,99928.22
2023-12-30T12:58:42.628Z,99924.53
2023-12-30T13:03:44.361Z,99929.13
2023-12-30T13:08:48.381Z,99927.03
2023-12-30T13:13:53.427Z,99924.44
2023-12-30T13:18:55.147Z,99934.09
2023-12-30T13:23:56.809Z,99935.63
2023-12-30T13:28:58.420Z,99937.56
2023-12-30T13:34:00.274Z,99941.56
2023-12-30T13:39:14.661Z,99954.91
2023-12-30T13:44:17.027Z,99964.84
2023-12-30T13:49:18.914Z,99965.13
2023-12-30T13:54:24.317Z,99960.78
2023-12-30T13:59:26.582Z,99968.44
2023-12-30T14:04:28.379Z,99979.25
2023-12-30T14:09:50.673Z,99970.47
2023-12-30T14:15:07.066Z,99969.63
2023-12-30T14:20:11.139Z,99970.00
2023-12-30T14:25:13.016Z,99981.31
2023-12-30T14:30:15.014Z,99985.34
2023-12-30T14:35:16.875Z,99976.28
2023-12-30T14:40:18.598Z,99982.72
2023-12-30T14:45:20.750Z,99984.00
2023-12-30T14:50:22.478Z,99981.88
2023-12-30T14:55:24.723Z,99979.59
2023-12-30T15:00:26.542Z,99985.22
2023-12-30T15:05:28.370Z,99982.88
2023-12-30T15:10:30.119Z,99989.53
2023-12-30T15:15:31.964Z,100004.81
2023-12-30T15:20:34.235Z,100002.78
2023-12-30T15:25:37.372Z,100016.13
2023-12-30T15:30:39.247Z,100016.50
2023-12-30T15:35:40.889Z,100025.44
2023-12-30T15:40:44.523Z,100037.50
2023-12-30T15:45:46.847Z,100036.22
2023-12-30T15:50:48.982Z,100047.88
2023-12-30T15:55:50.906Z,100043.97
2023-12-30T16:00:52.693Z,100046.81
2023-12-30T16:05:54.438Z,100060.84
2023-12-30T16:10:56.617Z,100056.72
2023-12-30T16:15:59.874Z,100072.16
2023-12-30T16:21:01.737Z,100060.06
2023-12-30T16:26:04.765Z,100069.31
2023-12-30T16:31:06.928Z,100063.19
2023-12-30T16:36:09.778Z,100066.91
2023-12-30T16:41:12.062Z,100071.44
2023-12-30T16:46:13.722Z,100063.59
2023-12-30T16:51:15.406Z,100060.94
2023-12-30T16:56:17.127Z,100065.13
2023-12-30T17:01:18.797Z,100070.56
2023-12-30T17:06:20.503Z,100061.16
2023-12-30T17:11:22.182Z,100066.38
2023-12-30T17:16:23.933Z,100075.63
2023-12-30T17:21:25.633Z,100077.28
2023-12-30T17:26:27.244Z,100073.22
2023-12-30T17:31:29.144Z,100069.84
2023-12-30T17:36:31.043Z,100086.69
2023-12-30T17:41:32.816Z,100075.19
2023-12-30T17:46:35.428Z,100083.06
2023-12-30T17:51:37.121Z,100085.47
2023-12-30T17:56:38.790Z,100081.59
2023-12-30T18:01:41.263Z,100082.94
2023-12-30T18:06:42.912Z,100082.81
2023-12-30T18:11:44.841Z,100076.06
2023-12-30T18:16:46.491Z,100078.94
2023-12-30T18:21:48.210Z,100076.16
2023-12-30T18:26:49.874Z,100088.56
2023-12-30T18:31:52.437Z,100097.25
2023-12-30T18:36:54.183Z,100095.56
2023-12-30T18:41:55.794Z,100081.13
2023-12-30T18:46:57.458Z,100077.31
2023-12-30T18:51:59.056Z,100086.44
2023-12-30T18:57:00.700Z,100087.56
2023-12-30T19:02:02.516Z,100096.84
2023-12-30T19:07:04.474Z,100089.25
2023-12-30T19:12:07.191Z,100080.16
2023-12-30T19:17:09.991Z,100083.91
2023-12-30T19:22:12.705Z,100083.06
2023-12-30T19:27:14.471Z,100085.47
2023-12-30T19:32:16.066Z,100080.84
2023-12-30T19:37:17.738Z,100077.75
2023-12-30T19:42:19.432Z,100079.84
2023-12-30T19:47:21.114Z,100078.72
2023-12-30T19:52:22.775Z,100079.69
2023-12-30T19:57:24.408Z,100084.91
2023-12-30T20:02:26.028Z,100070.88
2023-12-30T20:07:27.796Z,100074.09
2023-12-30T20:12:29.818Z,100073.09
2023-12-30T20:17:31.647Z,100066.66
2023-12-30T20:22:34.210Z,100058.25
2023-12-30T20:27:36.145Z,100047.72
2023-12-30T20:32:37.922Z,100061.16
2023-12-30T20:37:39.591Z,100061.88
2023-12-30T20:42:41.227Z,100064.69
2023-12-30T20:47:42.874Z,100079.28
2023-12-30T20:52:44.602Z,100081.50
2023-12-30T20:57:46.289Z,100068.03
2023-12-30T21:02:48.163Z,100075.06
2023-12-30T21:07:49.947Z,100062.44
2023-12-30T21:12:52.769Z,100058.66
2023-12-30T21:17:55.881Z,100055.69
2023-12-30T21:22:57.712Z,100051.06
2023-12-30T21:27:59.340Z,100048.13
2023-12-30T21:33:01.318Z,100054.56
2023-12-30T21:38:03.515Z,100053.97
2023-12-30T21:43:05.529Z,100047.81
2023-12-30T21:48:09.500Z,100043.88
2023-12-30T21:53:13.392Z,100038.13
2023-12-30T21:58:15.230Z,100031.69
2023-12-30T22:03:16.973Z,100038.78
2023-12-30T22:08:18.666Z,100028.22
2023-12-30T22:13:20.379Z,100047.63
2023-12-30T22:18:22.050Z,100043.31
2023-12-30T22:23:23.705Z,100038.00
2023-12-30T22:28:25.359Z,100047.47
2023-12-30T22:33:27.110Z,100052.34
2023-12-30T22:38:28.952Z,100042.88
2023-12-30T22:43:31.317Z,100042.22
2023-12-30T22:48:33.015Z,100046.34
2023-12-30T22:53:34.789Z,100031.72
2023-12-30T22:58:36.737Z,100038.41
2023-12-30T23:03:40.172Z,100044.75
2023-12-30T23:08:41.972Z,100029.34
2023-12-30T23:13:43.786Z,100034.09
2023-12-30T23:18:45.656Z,100038.38
2023-12-30T23:23:47.493Z,100027.97
2023-12-30T23:28:49.310Z,100021.63
2023-12-30T23:33:51.098Z,100014.66
2023-12-30T23:38:52.790Z,100007.59
2023-12-30T23:43:54.441Z,100013.31
2023-12-30T23:48:56.259Z,99995.00
2023-12-30T23:53:57.902Z,99987.19
2023-12-30T23:58:59.499Z,99986.03
